createdAt,value
2017-06-15T00:01:29.466Z,21.40
2017-06-15T00:03:56.986Z,21.40
2017-06-15T00:06:24.563Z,21.40
2017-06-15T00:08:52.172Z,21.50
2017-06-15T00:11:19.729Z,21.30
2017-06-15T00:13:47.255Z,21.40
2017-06-15T00:16:14.806Z,21.30
2017-06-15T00:18:42.342Z,21.40
2017-06-15T00:21:09.931Z,21.40
2017-06-15T00:23:37.465Z,21.30
2017-06-15T00:26:05.087Z,21.30
2017-06-15T00:28:32.603Z,21.30
2017-06-15T00:31:00.141Z,21.30
2017-06-15T00:33:27.674Z,21.20
2017-06-15T00:35:55.215Z,21.20
2017-06-15T00:38:22.725Z,21.20
2017-06-15T00:40:50.262Z,21.10
2017-06-15T00:43:17.796Z,21.10
2017-06-15T00:45:45.338Z,21.00
2017-06-15T00:48:12.866Z,20.90
2017-06-15T00:50:40.456Z,20.80
2017-06-15T00:53:07.987Z,20.90
2017-06-15T00:55:36.324Z,20.70
2017-06-15T00:58:03.840Z,20.70
2017-06-15T01:00:32.141Z,20.80
2017-06-15T01:02:59.713Z,20.70
2017-06-15T01:05:27.248Z,20.70
2017-06-15T01:07:54.794Z,20.80
2017-06-15T01:10:23.079Z,20.70
2017-06-15T01:12:50.638Z,20.70
2017-06-15T01:15:18.158Z,20.50
2017-06-15T01:17:45.727Z,20.60
2017-06-15T01:20:13.255Z,20.60
2017-06-15T01:22:40.775Z,20.50
2017-06-15T01:25:08.303Z,20.50
2017-06-15T01:27:35.842Z,20.50
2017-06-15T01:30:03.403Z,20.50
2017-06-15T01:32:30.922Z,20.40
2017-06-15T01:34:58.460Z,20.30
2017-06-15T01:37:25.999Z,20.30
2017-06-15T01:39:53.515Z,20.30
2017-06-15T01:42:21.037Z,20.30
2017-06-15T01:44:49.314Z,20.30
2017-06-15T01:47:17.661Z,20.30
2017-06-15T01:49:45.178Z,20.20
2017-06-15T01:52:12.734Z,20.20
2017-06-15T01:54:40.287Z,20.20
2017-06-15T01:57:07.850Z,20.20
2017-06-15T01:59:35.401Z,20.10
2017-06-15T02:02:03.707Z,20.10
2017-06-15T02:04:31.274Z,20.10
2017-06-15T02:06:58.807Z,20.10
2017-06-15T02:09:26.396Z,20.10
2017-06-15T02:11:53.925Z,20.10
2017-06-15T02:14:21.515Z,20.10
2017-06-15T02:16:49.070Z,20.20
2017-06-15T02:19:16.584Z,20.20
2017-06-15T02:21:44.135Z,20.10
2017-06-15T02:24:11.671Z,20.00
2017-06-15T02:26:39.194Z,20.00
2017-06-15T02:29:06.726Z,20.00
2017-06-15T02:31:35.035Z,19.90
2017-06-15T02:34:02.551Z,19.80
2017-06-15T02:36:30.103Z,19.80
2017-06-15T02:38:57.625Z,19.70
2017-06-15T02:41:25.143Z,19.70
2017-06-15T02:43:53.467Z,19.70
2017-06-15T02:46:21.004Z,19.70
2017-06-15T02:48:48.545Z,19.70
2017-06-15T02:51:16.834Z,19.30
2017-06-15T02:53:44.398Z,19.30
2017-06-15T02:56:11.906Z,19.40
2017-06-15T02:58:39.466Z,19.40
2017-06-15T03:01:07.008Z,19.50
2017-06-15T03:03:34.585Z,19.50
2017-06-15T03:06:02.145Z,19.60
2017-06-15T03:08:29.687Z,19.50
2017-06-15T03:10:57.209Z,19.50
2017-06-15T03:13:25.564Z,19.50
2017-06-15T03:15:53.089Z,19.50
2017-06-15T03:18:20.626Z,19.50
2017-06-15T03:20:48.149Z,19.50
2017-06-15T03:23:16.449Z,19.40
2017-06-15T03:25:43.979Z,19.40
2017-06-15T03:28:11.514Z,19.40
2017-06-15T03:30:39.063Z,19.30
2017-06-15T03:33:06.612Z,19.30
2017-06-15T03:35:34.130Z,19.40
2017-06-15T03:38:02.435Z,19.40
2017-06-15T03:40:30.002Z,19.40
2017-06-15T03:42:57.551Z,19.30
2017-06-15T03:45:25.085Z,19.30
2017-06-15T03:47:53.425Z,19.40
2017-06-15T03:50:21.040Z,19.40
2017-06-15T03:52:49.382Z,19.60
2017-06-15T03:55:16.929Z,19.50
2017-06-15T03:57:44.498Z,19.50
2017-06-15T04:00:12.058Z,19.60
2017-06-15T04:02:39.597Z,19.50
2017-06-15T04:05:07.110Z,19.50
2017-06-15T04:07:35.435Z,19.60
2017-06-15T04:10:02.972Z,19.60
2017-06-15T04:12:30.512Z,19.60
2017-06-15T04:14:58.810Z,19.60
2017-06-15T04:17:26.386Z,19.60
2017-06-15T04:19:53.926Z,19.70
2017-06-15T04:22:21.487Z,19.80
2017-06-15T04:24:49.058Z,19.90
2017-06-15T04:27:16.603Z,20.00
2017-06-15T04:32:17.977Z,20.20
2017-06-15T04:34:45.537Z,20.20
2017-06-15T04:37:13.096Z,20.20
2017-06-15T04:39:40.614Z,20.30
2017-06-15T04:42:08.126Z,20.40
2017-06-15T04:44:35.687Z,20.50
2017-06-15T04:47:03.202Z,20.60
2017-06-15T04:49:30.806Z,20.80
2017-06-15T04:51:58.331Z,20.80
2017-06-15T04:54:26.706Z,21.10
2017-06-15T04:56:54.221Z,21.00
2017-06-15T04:59:21.777Z,21.10
2017-06-15T05:01:49.301Z,21.30
2017-06-15T05:04:16.869Z,21.50
2017-06-15T05:06:44.419Z,21.50
2017-06-15T05:09:11.974Z,21.60
2017-06-15T05:11:39.569Z,21.70
2017-06-15T05:14:07.146Z,21.90
2017-06-15T05:16:34.671Z,21.90
2017-06-15T05:19:02.194Z,22.00
2017-06-15T05:21:29.719Z,22.10
2017-06-15T05:23:57.316Z,22.10
2017-06-15T05:26:25.582Z,22.30
2017-06-15T05:28:53.917Z,22.30
2017-06-15T05:31:21.436Z,22.30
2017-06-15T05:33:49.772Z,22.30
2017-06-15T05:36:17.281Z,22.30
2017-06-15T05:38:44.845Z,22.50
2017-06-15T05:41:12.386Z,22.70
2017-06-15T05:43:39.943Z,22.80
2017-06-15T05:46:07.473Z,22.90
2017-06-15T05:48:35.008Z,23.00
2017-06-15T05:51:02.562Z,23.30
2017-06-15T05:53:30.147Z,23.40
2017-06-15T05:55:57.675Z,23.60
2017-06-15T05:58:25.289Z,23.80
2017-06-15T06:00:52.875Z,23.90
2017-06-15T06:03:21.159Z,24.30
2017-06-15T06:05:49.484Z,24.40
2017-06-15T06:08:17.049Z,24.40
2017-06-15T06:10:44.609Z,24.60
2017-06-15T06:13:12.178Z,24.80
2017-06-15T06:15:39.723Z,25.00
2017-06-15T06:18:07.274Z,25.10
2017-06-15T06:20:34.806Z,25.10
2017-06-15T06:23:02.967Z,25.30
2017-06-15T06:25:31.262Z,25.70
2017-06-15T06:27:58.762Z,25.60
2017-06-15T06:30:26.316Z,25.80
2017-06-15T06:32:53.856Z,25.50
2017-06-15T06:35:21.385Z,25.60
2017-06-15T06:37:48.922Z,25.70
2017-06-15T06:40:16.447Z,25.80
2017-06-15T06:42:43.991Z,26.20
2017-06-15T06:45:11.538Z,26.50
2017-06-15T06:47:39.054Z,27.10
2017-06-15T06:50:06.622Z,27.20
2017-06-15T06:52:34.138Z,27.80
2017-06-15T06:55:01.695Z,28.40
2017-06-15T06:57:29.259Z,29.30
2017-06-15T06:59:56.798Z,29.60
2017-06-15T07:02:24.336Z,29.40
2017-06-15T07:04:52.663Z,29.50
2017-06-15T07:07:20.189Z,29.40
2017-06-15T07:09:47.729Z,29.90
2017-06-15T07:12:16.009Z,30.50
2017-06-15T07:14:43.561Z,30.40
2017-06-15T07:17:11.115Z,30.20
2017-06-15T07:19:38.642Z,30.80
2017-06-15T07:22:06.165Z,30.70
2017-06-15T07:24:33.739Z,30.80
2017-06-15T07:27:01.276Z,31.90
2017-06-15T07:29:29.582Z,31.70
2017-06-15T07:31:57.105Z,31.70
2017-06-15T07:34:24.664Z,31.70
2017-06-15T07:36:52.957Z,31.80
2017-06-15T07:39:20.478Z,31.70
2017-06-15T07:41:48.006Z,31.60
2017-06-15T07:44:15.534Z,31.90
2017-06-15T07:46:44.094Z,33.70
2017-06-15T07:49:12.603Z,33.60
2017-06-15T07:51:40.243Z,33.90
2017-06-15T07:54:08.524Z,34.70
2017-06-15T07:56:36.061Z,34.60
2017-06-15T07:59:03.595Z,34.50
2017-06-15T08:01:31.130Z,34.10
2017-06-15T08:03:58.666Z,34.00
2017-06-15T08:06:26.956Z,34.10
2017-06-15T08:08:55.293Z,34.40
2017-06-15T08:11:23.606Z,35.00
2017-06-15T08:13:51.118Z,35.00
2017-06-15T08:16:18.645Z,35.40
2017-06-15T08:18:46.178Z,35.80
2017-06-15T08:21:14.526Z,34.70
2017-06-15T08:23:42.031Z,34.70
2017-06-15T08:26:09.571Z,34.90
2017-06-15T08:28:37.880Z,35.50
2017-06-15T08:31:05.422Z,35.50
2017-06-15T08:33:32.975Z,36.10
2017-06-15T08:36:01.289Z,37.20
2017-06-15T08:38:28.807Z,37.20
2017-06-15T08:40:56.362Z,36.90
2017-06-15T08:43:23.931Z,36.50
2017-06-15T08:45:51.491Z,36.80
2017-06-15T08:48:19.790Z,37.20
2017-06-15T08:50:47.316Z,37.20
2017-06-15T08:53:14.833Z,38.00
2017-06-15T08:55:42.382Z,37.50
2017-06-15T08:58:09.924Z,36.70
2017-06-15T09:00:37.479Z,36.90
2017-06-15T09:03:05.001Z,37.60
2017-06-15T09:05:32.539Z,37.50
2017-06-15T09:08:00.074Z,37.20
2017-06-15T09:10:27.606Z,36.70
2017-06-15T09:12:55.154Z,37.10
2017-06-15T09:15:23.454Z,38.10
2017-06-15T09:17:50.987Z,38.10
2017-06-15T09:20:18.487Z,38.90
2017-06-15T09:22:46.024Z,38.60
2017-06-15T09:25:13.546Z,39.40
2017-06-15T09:27:41.074Z,40.50
2017-06-15T09:30:08.575Z,40.40
2017-06-15T09:32:36.135Z,41.00
2017-06-15T09:35:03.639Z,40.90
2017-06-15T09:37:31.161Z,41.00
2017-06-15T09:39:58.663Z,41.40
2017-06-15T09:42:26.232Z,41.90
2017-06-15T09:44:53.758Z,41.80
2017-06-15T09:47:22.047Z,40.90
2017-06-15T09:49:49.562Z,40.90
2017-06-15T09:52:17.106Z,41.40
2017-06-15T09:54:44.659Z,41.80
2017-06-15T09:57:12.199Z,42.20
2017-06-15T09:59:39.743Z,42.30
2017-06-15T10:02:07.270Z,42.30
2017-06-15T10:04:34.770Z,42.70
2017-06-15T10:07:02.302Z,43.10
2017-06-15T10:09:30.655Z,42.90
2017-06-15T10:11:58.172Z,42.90
2017-06-15T10:14:25.707Z,43.00
2017-06-15T10:16:54.026Z,42.20
2017-06-15T10:19:21.546Z,42.10
2017-06-15T10:21:49.840Z,40.60
2017-06-15T10:24:17.366Z,40.60
2017-06-15T10:26:44.930Z,39.80
2017-06-15T10:29:13.210Z,37.90
2017-06-15T10:31:41.528Z,37.90
2017-06-15T10:34:09.074Z,37.90
2017-06-15T10:36:36.606Z,38.20
2017-06-15T10:39:04.881Z,38.90
2017-06-15T10:41:33.193Z,38.10
2017-06-15T10:44:00.701Z,38.10
2017-06-15T10:46:28.257Z,37.70
2017-06-15T10:48:55.838Z,36.20
2017-06-15T10:51:24.154Z,36.60
2017-06-15T10:53:51.685Z,36.60
2017-06-15T10:56:19.218Z,36.50
2017-06-15T10:58:46.738Z,36.50
2017-06-15T11:01:14.278Z,36.90
2017-06-15T11:03:41.827Z,37.40
2017-06-15T11:06:10.110Z,37.70
2017-06-15T11:08:37.665Z,37.60
2017-06-15T11:11:05.218Z,37.50
2017-06-15T11:13:32.742Z,37.50
2017-06-15T11:16:00.294Z,38.80
2017-06-15T11:18:27.878Z,40.70
2017-06-15T11:20:55.382Z,42.20
2017-06-15T11:23:22.912Z,41.40
2017-06-15T11:25:51.188Z,42.60
2017-06-15T11:28:19.525Z,41.80
2017-06-15T11:30:47.055Z,41.80
2017-06-15T11:33:14.579Z,40.80
2017-06-15T11:35:42.111Z,40.70
2017-06-15T11:38:09.694Z,41.10
2017-06-15T11:40:37.212Z,41.80
2017-06-15T11:43:04.755Z,42.60
2017-06-15T11:45:32.270Z,42.40
2017-06-15T11:47:59.818Z,42.70
2017-06-15T11:50:27.330Z,42.70
2017-06-15T11:52:54.898Z,42.10
2017-06-15T11:55:22.425Z,41.20
2017-06-15T11:57:50.730Z,42.30
2017-06-15T12:00:18.258Z,42.30
2017-06-15T12:02:46.580Z,43.60
2017-06-15T12:05:14.089Z,43.50
2017-06-15T12:07:42.427Z,42.60
2017-06-15T12:10:09.963Z,42.50
2017-06-15T12:12:37.502Z,41.80
2017-06-15T12:15:05.796Z,42.40
2017-06-15T12:17:33.341Z,42.40
2017-06-15T12:20:01.640Z,41.60
2017-06-15T12:22:29.197Z,41.60
2017-06-15T12:24:56.759Z,41.80
2017-06-15T12:27:24.298Z,41.50
2017-06-15T12:29:51.853Z,41.60
2017-06-15T12:32:20.153Z,41.00
2017-06-15T12:34:47.659Z,40.90
2017-06-15T12:37:15.231Z,42.30
2017-06-15T12:39:43.539Z,42.00
2017-06-15T12:42:11.037Z,42.00
2017-06-15T12:44:38.594Z,41.70
2017-06-15T12:47:06.127Z,42.60
2017-06-15T12:49:33.652Z,43.10
2017-06-15T12:52:01.207Z,43.20
2017-06-15T12:54:28.750Z,41.50
2017-06-15T12:56:56.260Z,40.40
2017-06-15T12:59:23.795Z,40.10
2017-06-15T13:01:51.343Z,39.30
2017-06-15T13:04:19.697Z,39.80
2017-06-15T13:06:47.234Z,39.80
2017-06-15T13:09:14.805Z,40.60
2017-06-15T13:11:42.310Z,41.00
2017-06-15T13:14:09.840Z,41.40
2017-06-15T13:16:37.345Z,40.70
2017-06-15T13:19:05.648Z,40.00
2017-06-15T13:21:33.189Z,39.90
2017-06-15T13:24:00.758Z,39.00
2017-06-15T13:26:28.278Z,39.00
2017-06-15T13:28:55.802Z,38.80
2017-06-15T13:31:23.294Z,38.80
2017-06-15T13:33:50.836Z,38.20
2017-06-15T13:36:18.400Z,38.10
2017-06-15T13:38:45.947Z,38.30
2017-06-15T13:41:13.475Z,37.60
2017-06-15T13:43:41.013Z,37.50
2017-06-15T13:46:08.558Z,37.40
2017-06-15T13:48:36.074Z,36.70
2017-06-15T13:51:03.601Z,36.70
2017-06-15T13:53:31.137Z,36.90
2017-06-15T13:55:58.633Z,37.10
2017-06-15T13:58:26.226Z,37.20
2017-06-15T14:00:53.766Z,37.10
2017-06-15T14:03:21.372Z,36.60
2017-06-15T14:05:48.937Z,36.60
2017-06-15T14:08:16.449Z,36.20
2017-06-15T14:10:44.026Z,35.90
2017-06-15T14:13:11.543Z,35.70
2017-06-15T14:15:39.102Z,35.50
2017-06-15T14:18:06.630Z,35.60
2017-06-15T14:20:34.131Z,35.80
2017-06-15T14:23:01.695Z,35.80
2017-06-15T14:25:29.253Z,35.90
2017-06-15T14:27:56.790Z,36.10
2017-06-15T14:30:24.341Z,35.60
2017-06-15T14:32:51.910Z,34.90
2017-06-15T14:35:20.223Z,35.20
2017-06-15T14:37:47.742Z,35.10
2017-06-15T14:40:15.304Z,35.30
2017-06-15T14:42:42.843Z,35.50
2017-06-15T14:45:10.384Z,35.60
2017-06-15T14:47:37.921Z,35.30
2017-06-15T14:50:05.437Z,35.40
2017-06-15T14:52:33.010Z,35.40
2017-06-15T14:55:00.514Z,35.40
2017-06-15T14:57:28.090Z,35.30
2017-06-15T14:59:55.614Z,34.70
2017-06-15T15:02:23.818Z,34.50
2017-06-15T15:04:51.377Z,34.30
2017-06-15T15:07:18.902Z,34.10
2017-06-15T15:09:46.438Z,34.40
2017-06-15T15:12:13.966Z,34.30
2017-06-15T15:14:41.492Z,34.20
2017-06-15T15:17:09.025Z,34.00
2017-06-15T15:19:36.612Z,33.90
2017-06-15T15:22:04.173Z,33.50
2017-06-15T15:24:31.721Z,33.00
2017-06-15T15:26:59.270Z,32.10
2017-06-15T15:29:26.818Z,31.50
2017-06-15T15:31:55.164Z,30.50
2017-06-15T15:34:22.696Z,30.40
2017-06-15T15:36:50.210Z,30.10
2017-06-15T15:39:18.542Z,29.60
2017-06-15T15:41:46.089Z,29.50
2017-06-15T15:44:13.646Z,29.40
2017-06-15T15:46:41.207Z,29.40
2017-06-15T15:49:08.749Z,29.10
2017-06-15T15:51:36.313Z,28.90
2017-06-15T15:54:03.871Z,28.80
2017-06-15T15:56:31.481Z,28.70
2017-06-15T15:58:58.999Z,28.40
2017-06-15T16:01:26.538Z,28.40
2017-06-15T16:03:54.873Z,28.30
2017-06-15T16:06:22.384Z,28.20
2017-06-15T16:08:49.974Z,28.20
2017-06-15T16:11:17.508Z,28.10
2017-06-15T16:13:45.086Z,28.10
2017-06-15T16:16:12.589Z,27.60
2017-06-15T16:18:40.148Z,27.70
2017-06-15T16:21:07.737Z,27.80
2017-06-15T16:23:35.254Z,27.80
2017-06-15T16:26:02.823Z,27.50
2017-06-15T16:28:30.363Z,27.40
2017-06-15T16:30:57.939Z,27.10
2017-06-15T16:33:25.470Z,27.10
2017-06-15T16:35:53.021Z,26.70
2017-06-15T16:38:21.546Z,26.80
2017-06-15T16:40:49.098Z,26.80
2017-06-15T16:43:16.605Z,26.90
2017-06-15T16:45:44.158Z,27.10
2017-06-15T16:48:11.735Z,26.90
2017-06-15T16:50:39.281Z,26.90
2017-06-15T16:53:06.794Z,27.10
2017-06-15T16:55:34.329Z,27.10
2017-06-15T16:58:02.657Z,27.10
2017-06-15T17:00:31.002Z,27.10
2017-06-15T17:02:58.526Z,27.10
2017-06-15T17:05:26.022Z,27.20
2017-06-15T17:07:53.546Z,27.20
2017-06-15T17:10:21.047Z,27.10
2017-06-15T17:12:48.559Z,27.40
2017-06-15T17:15:16.070Z,27.50
2017-06-15T17:17:43.683Z,27.60
2017-06-15T17:20:11.190Z,27.70
2017-06-15T17:22:38.747Z,27.60
2017-06-15T17:25:06.292Z,27.60
2017-06-15T17:27:33.814Z,27.80
2017-06-15T17:30:01.372Z,27.90
2017-06-15T17:32:28.906Z,28.10
2017-06-15T17:34:56.430Z,28.10
2017-06-15T17:37:23.976Z,28.00
2017-06-15T17:39:51.506Z,27.80
2017-06-15T17:42:19.041Z,27.80
2017-06-15T17:44:46.578Z,27.80
2017-06-15T17:47:14.139Z,27.80
2017-06-15T17:49:41.650Z,27.60
2017-06-15T17:52:09.233Z,27.50
2017-06-15T17:54:36.782Z,27.50
2017-06-15T17:57:04.314Z,27.60
2017-06-15T17:59:31.865Z,27.40
2017-06-15T18:02:00.154Z,27.60
2017-06-15T18:04:29.420Z,27.70
2017-06-15T18:06:56.935Z,27.70
2017-06-15T18:09:24.521Z,27.80
2017-06-15T18:11:52.072Z,27.50
2017-06-15T18:14:19.586Z,27.50
2017-06-15T18:16:47.184Z,27.80
2017-06-15T18:19:14.718Z,27.90
2017-06-15T18:21:42.275Z,28.10
2017-06-15T18:24:10.589Z,27.90
2017-06-15T18:26:38.113Z,27.80
2017-06-15T18:29:05.666Z,27.70
2017-06-15T18:31:33.186Z,27.90
2017-06-15T18:34:00.756Z,27.70
2017-06-15T18:36:28.293Z,27.50
2017-06-15T18:38:55.791Z,27.70
2017-06-15T18:41:23.329Z,27.90
2017-06-15T18:43:50.870Z,27.90
2017-06-15T18:46:18.435Z,28.00
2017-06-15T18:48:46.016Z,28.00
2017-06-15T18:51:13.518Z,27.90
2017-06-15T18:53:41.080Z,27.80
2017-06-15T18:56:08.645Z,27.70
2017-06-15T18:58:36.184Z,27.60
2017-06-15T19:01:03.710Z,27.60
2017-06-15T19:03:31.261Z,27.60
2017-06-15T19:05:58.784Z,27.40
2017-06-15T19:08:26.297Z,27.40
2017-06-15T19:10:53.898Z,27.40
2017-06-15T19:13:21.422Z,27.30
2017-06-15T19:15:48.950Z,27.30
2017-06-15T19:18:16.470Z,27.30
2017-06-15T19:20:44.775Z,27.30
2017-06-15T19:23:12.318Z,27.20
2017-06-15T19:25:39.842Z,27.30
2017-06-15T19:28:07.408Z,27.20
2017-06-15T19:30:35.773Z,27.00
2017-06-15T19:33:03.346Z,27.00
2017-06-15T19:35:30.867Z,27.00
2017-06-15T19:37:58.469Z,26.90
2017-06-15T19:40:25.993Z,26.90
2017-06-15T19:42:53.533Z,26.90
2017-06-15T19:45:21.086Z,26.90
2017-06-15T19:47:48.611Z,26.80
2017-06-15T19:50:17.002Z,26.60
2017-06-15T19:52:44.535Z,26.60
2017-06-15T19:55:12.083Z,26.60
2017-06-15T19:57:39.594Z,26.60
2017-06-15T20:00:07.114Z,26.50
2017-06-15T20:02:34.665Z,26.50
2017-06-15T20:05:02.282Z,26.40
2017-06-15T20:07:29.842Z,26.40
2017-06-15T20:09:57.387Z,26.30
2017-06-15T20:12:24.907Z,26.30
2017-06-15T20:14:52.434Z,26.40
2017-06-15T20:17:19.971Z,26.30
2017-06-15T20:19:47.538Z,26.20
2017-06-15T20:22:15.042Z,26.20
2017-06-15T20:24:48.287Z,26.20
2017-06-15T20:27:15.803Z,26.20
2017-06-15T20:29:43.336Z,26.00
2017-06-15T20:32:10.901Z,26.00
2017-06-15T20:34:38.467Z,26.00
2017-06-15T20:37:06.018Z,25.90
2017-06-15T20:39:33.551Z,25.90
2017-06-15T20:42:01.092Z,26.00
2017-06-15T20:44:28.601Z,26.00
2017-06-15T20:46:56.122Z,25.90
2017-06-15T20:49:23.652Z,25.80
2017-06-15T20:51:51.184Z,25.80
2017-06-15T20:54:18.772Z,25.70
2017-06-15T20:56:47.049Z,25.40
2017-06-15T20:59:15.426Z,25.50
2017-06-15T21:01:43.703Z,25.60
2017-06-15T21:04:11.986Z,25.60
2017-06-15T21:06:40.310Z,25.70
2017-06-15T21:09:07.832Z,25.60
2017-06-15T21:11:36.118Z,25.60
2017-06-15T21:14:03.641Z,25.60
2017-06-15T21:16:31.254Z,25.60
2017-06-15T21:18:58.795Z,25.60
2017-06-15T21:21:26.347Z,25.60
2017-06-15T21:23:53.886Z,25.60
2017-06-15T21:26:21.422Z,25.50
2017-06-15T21:28:48.966Z,25.40
2017-06-15T21:31:16.469Z,25.30
2017-06-15T21:33:44.058Z,25.40
2017-06-15T21:36:11.591Z,25.40
2017-06-15T21:38:39.094Z,25.40
2017-06-15T21:41:06.646Z,25.10
2017-06-15T21:43:34.190Z,24.90
2017-06-15T21:46:01.766Z,24.90
2017-06-15T21:48:29.298Z,24.70
2017-06-15T21:50:57.614Z,24.40
2017-06-15T21:53:25.159Z,24.30
2017-06-15T21:55:52.677Z,24.40
2017-06-15T21:58:20.220Z,24.60
2017-06-15T22:00:47.746Z,24.60
2017-06-15T22:03:15.280Z,24.50
2017-06-15T22:05:42.843Z,24.30
2017-06-15T22:08:10.433Z,24.30
2017-06-15T22:10:37.966Z,24.40
2017-06-15T22:13:05.523Z,24.20
2017-06-15T22:15:33.062Z,24.40
2017-06-15T22:18:00.576Z,24.20
2017-06-15T22:20:28.179Z,24.30
2017-06-15T22:22:55.698Z,24.30
2017-06-15T22:25:23.231Z,24.40
2017-06-15T22:27:50.774Z,24.40
2017-06-15T22:30:19.078Z,24.40
2017-06-15T22:32:46.706Z,24.30
2017-06-15T22:35:14.236Z,24.20
2017-06-15T22:37:41.819Z,24.00
2017-06-15T22:40:09.349Z,23.50
2017-06-15T22:42:36.902Z,23.20
2017-06-15T22:45:04.458Z,23.30
2017-06-15T22:47:32.029Z,23.40
2017-06-15T22:49:59.594Z,23.40
2017-06-15T22:52:27.114Z,23.30
2017-06-15T22:54:54.707Z,23.30
2017-06-15T22:57:22.246Z,23.10
2017-06-15T22:59:49.786Z,22.90
2017-06-15T23:02:29.836Z,22.70
2017-06-15T23:04:58.174Z,22.70
2017-06-15T23:07:25.730Z,22.70
2017-06-15T23:09:53.230Z,22.80
2017-06-15T23:12:21.550Z,23.10
2017-06-15T23:14:49.076Z,23.10
2017-06-15T23:17:16.595Z,23.00
2017-06-15T23:19:44.122Z,23.20
2017-06-15T23:22:11.657Z,23.20
2017-06-15T23:24:39.199Z,23.30
2017-06-15T23:27:06.710Z,23.30
2017-06-15T23:29:34.259Z,23.40
2017-06-15T23:32:01.798Z,23.50
2017-06-15T23:34:29.350Z,23.00
2017-06-15T23:36:56.904Z,23.20
2017-06-15T23:39:25.187Z,22.90
2017-06-15T23:41:53.467Z,23.10
2017-06-15T23:44:20.995Z,23.10
2017-06-15T23:46:49.321Z,23.20
2017-06-15T23:49:16.876Z,23.20
2017-06-15T23:51:44.389Z,23.30
2017-06-15T23:54:11.990Z,23.10
2017-06-15T23:56:39.540Z,23.00
2017-06-15T23:59:07.087Z,23.30
